トロムソ の空港の天気 - METARとTAF

トロムソ空港 ( ENTC / TOS ) - ノルウェー トロムス県トロムソ
飛行場実況気象(Metar)
観測時間09/23 00:20 CEST (09/22 22:20 UTC)
風向・風速南 8m/s
視程10km以上
天気現象
なし
気温11℃
湿度62%
気圧997hPa
METARENTC 222220Z 19016KT CAVOK 11/04 Q0997 RMK WIND 2600FT 18031KT
過去の天気等 Google飛行場航空写真 Wunderground天気予報

過去48時間のMETAR

飛行場予報(TAF)
発表時間: -
22日20時 CEST ~ 22日23時 CEST に一時的に
風向・風速南南西 10m/s 瞬間風速 15m/s
22日20時 CEST ~ 23日2時 CEST に一時的に
視程4500m
天気現象しゅう雨
23日3時 CEST ~ 23日4時 CEST に徐々に
風向・風速西南西 3m/s
TAF ENTC 2218/2318 20015KT 9999 BKN050
TEMPO 2218/2221 20020G30KT
TEMPO 2218/2224 4500 SHRA
BECMG 2301/2302 24005KT